sensor_id;sensor_type;location;lat;lon;timestamp;P1;durP1;ratioP1;P2;durP2;ratioP2
33076;SDS011;38790;51.964;5.924;2022-09-09T00:04:26;9.10;;;3.95;;
33076;SDS011;38790;51.964;5.924;2022-09-09T00:10:04;4.43;;;3.22;;
33076;SDS011;38790;51.964;5.924;2022-09-09T00:18:59;6.43;;;3.70;;
33076;SDS011;38790;51.964;5.924;2022-09-09T00:21:48;7.35;;;3.28;;
33076;SDS011;38790;51.964;5.924;2022-09-09T00:24:26;8.07;;;3.60;;
33076;SDS011;38790;51.964;5.924;2022-09-09T00:27:00;4.75;;;2.85;;
33076;SDS011;38790;51.964;5.924;2022-09-09T00:32:19;5.43;;;3.10;;
33076;SDS011;38790;51.964;5.924;2022-09-09T00:34:56;5.30;;;2.60;;
33076;SDS011;38790;51.964;5.924;2022-09-09T00:37:30;4.97;;;2.67;;
33076;SDS011;38790;51.964;5.924;2022-09-09T00:39:59;6.68;;;3.00;;
33076;SDS011;38790;51.964;5.924;2022-09-09T00:42:43;5.93;;;3.20;;
33076;SDS011;38790;51.964;5.924;2022-09-09T00:48:02;5.18;;;2.80;;
33076;SDS011;38790;51.964;5.924;2022-09-09T00:50:46;7.60;;;3.00;;
33076;SDS011;38790;51.964;5.924;2022-09-09T00:56:21;6.32;;;2.50;;
33076;SDS011;38790;51.964;5.924;2022-09-09T01:01:36;7.20;;;2.80;;
33076;SDS011;38790;51.964;5.924;2022-09-09T01:04:06;4.45;;;2.97;;
33076;SDS011;38790;51.964;5.924;2022-09-09T01:06:41;6.90;;;3.00;;
33076;SDS011;38790;51.964;5.924;2022-09-09T01:09:32;7.43;;;3.13;;
33076;SDS011;38790;51.964;5.924;2022-09-09T01:12:12;6.10;;;2.97;;
33076;SDS011;38790;51.964;5.924;2022-09-09T01:14:43;5.43;;;3.00;;
33076;SDS011;38790;51.964;5.924;2022-09-09T01:22:26;6.95;;;3.17;;
33076;SDS011;38790;51.964;5.924;2022-09-09T01:27:40;5.10;;;2.95;;
33076;SDS011;38790;51.964;5.924;2022-09-09T01:30:12;7.35;;;3.10;;
33076;SDS011;38790;51.964;5.924;2022-09-09T01:32:42;6.35;;;2.72;;
33076;SDS011;38790;51.964;5.924;2022-09-09T01:35:13;7.63;;;2.60;;
33076;SDS011;38790;51.964;5.924;2022-09-09T01:38:01;7.38;;;2.92;;
33076;SDS011;38790;51.964;5.924;2022-09-09T01:40:27;4.93;;;2.60;;
33076;SDS011;38790;51.964;5.924;2022-09-09T01:42:53;5.85;;;2.65;;
33076;SDS011;38790;51.964;5.924;2022-09-09T01:45:20;5.72;;;2.40;;
33076;SDS011;38790;51.964;5.924;2022-09-09T01:47:47;5.07;;;2.80;;
33076;SDS011;38790;51.964;5.924;2022-09-09T01:50:15;6.45;;;2.13;;
33076;SDS011;38790;51.964;5.924;2022-09-09T01:52:42;3.53;;;2.05;;
33076;SDS011;38790;51.964;5.924;2022-09-09T01:55:11;7.70;;;2.35;;
33076;SDS011;38790;51.964;5.924;2022-09-09T01:58:13;7.93;;;2.35;;
33076;SDS011;38790;51.964;5.924;2022-09-09T02:00:33;3.88;;;1.80;;
33076;SDS011;38790;51.964;5.924;2022-09-09T02:05:50;2.60;;;1.75;;
33076;SDS011;38790;51.964;5.924;2022-09-09T02:08:48;3.38;;;2.28;;
33076;SDS011;38790;51.964;5.924;2022-09-09T02:11:17;9.70;;;2.33;;
33076;SDS011;38790;51.964;5.924;2022-09-09T02:13:45;8.55;;;2.40;;
33076;SDS011;38790;51.964;5.924;2022-09-09T02:19:10;6.07;;;2.20;;
33076;SDS011;38790;51.964;5.924;2022-09-09T02:21:57;5.30;;;2.58;;
33076;SDS011;38790;51.964;5.924;2022-09-09T02:26:53;4.35;;;2.60;;
33076;SDS011;38790;51.964;5.924;2022-09-09T02:29:24;6.63;;;2.78;;
33076;SDS011;38790;51.964;5.924;2022-09-09T02:31:54;9.20;;;2.75;;
33076;SDS011;38790;51.964;5.924;2022-09-09T02:34:28;6.28;;;2.60;;
33076;SDS011;38790;51.964;5.924;2022-09-09T02:36:57;6.20;;;3.00;;
33076;SDS011;38790;51.964;5.924;2022-09-09T02:39:25;9.00;;;3.58;;
33076;SDS011;38790;51.964;5.924;2022-09-09T02:41:51;6.93;;;3.20;;
33076;SDS011;38790;51.964;5.924;2022-09-09T02:44:18;6.93;;;2.97;;
33076;SDS011;38790;51.964;5.924;2022-09-09T02:55:58;6.78;;;3.33;;
33076;SDS011;38790;51.964;5.924;2022-09-09T02:58:02;11.57;;;3.58;;
33076;SDS011;38790;51.964;5.924;2022-09-09T03:00:32;9.55;;;3.80;;
33076;SDS011;38790;51.964;5.924;2022-09-09T03:03:02;4.38;;;3.47;;
33076;SDS011;38790;51.964;5.924;2022-09-09T03:05:29;8.98;;;3.63;;
33076;SDS011;38790;51.964;5.924;2022-09-09T03:07:55;4.68;;;3.00;;
33076;SDS011;38790;51.964;5.924;2022-09-09T03:10:21;4.10;;;3.17;;
33076;SDS011;38790;51.964;5.924;2022-09-09T03:12:48;6.88;;;3.22;;
33076;SDS011;38790;51.964;5.924;2022-09-09T03:15:15;10.73;;;4.18;;
33076;SDS011;38790;51.964;5.924;2022-09-09T03:17:42;7.85;;;3.47;;
33076;SDS011;38790;51.964;5.924;2022-09-09T03:20:08;11.88;;;3.67;;
33076;SDS011;38790;51.964;5.924;2022-09-09T03:22:34;14.10;;;3.95;;
33076;SDS011;38790;51.964;5.924;2022-09-09T03:25:01;8.18;;;3.38;;
33076;SDS011;38790;51.964;5.924;2022-09-09T03:27:28;8.13;;;3.35;;
33076;SDS011;38790;51.964;5.924;2022-09-09T03:29:54;8.35;;;3.38;;
33076;SDS011;38790;51.964;5.924;2022-09-09T03:32:21;6.22;;;3.78;;
33076;SDS011;38790;51.964;5.924;2022-09-09T03:34:48;8.27;;;3.45;;
33076;SDS011;38790;51.964;5.924;2022-09-09T03:37:17;8.95;;;3.72;;
33076;SDS011;38790;51.964;5.924;2022-09-09T03:39:44;4.68;;;3.38;;
33076;SDS011;38790;51.964;5.924;2022-09-09T03:42:14;9.63;;;3.65;;
33076;SDS011;38790;51.964;5.924;2022-09-09T03:44:44;8.13;;;4.10;;
33076;SDS011;38790;51.964;5.924;2022-09-09T03:47:18;8.63;;;3.10;;
33076;SDS011;38790;51.964;5.924;2022-09-09T03:49:47;10.88;;;4.32;;
33076;SDS011;38790;51.964;5.924;2022-09-09T03:52:14;7.03;;;4.45;;
33076;SDS011;38790;51.964;5.924;2022-09-09T03:54:41;12.90;;;4.25;;
33076;SDS011;38790;51.964;5.924;2022-09-09T03:57:10;13.35;;;4.65;;
33076;SDS011;38790;51.964;5.924;2022-09-09T03:59:36;9.95;;;4.53;;
33076;SDS011;38790;51.964;5.924;2022-09-09T04:02:03;12.65;;;4.55;;
33076;SDS011;38790;51.964;5.924;2022-09-09T04:04:29;8.45;;;3.78;;
33076;SDS011;38790;51.964;5.924;2022-09-09T04:06:55;6.43;;;3.88;;
33076;SDS011;38790;51.964;5.924;2022-09-09T04:09:21;5.80;;;3.92;;
33076;SDS011;38790;51.964;5.924;2022-09-09T04:11:48;8.32;;;4.88;;
33076;SDS011;38790;51.964;5.924;2022-09-09T04:14:14;7.88;;;4.25;;
33076;SDS011;38790;51.964;5.924;2022-09-09T04:16:41;11.35;;;4.03;;
33076;SDS011;38790;51.964;5.924;2022-09-09T04:19:11;9.65;;;4.20;;
33076;SDS011;38790;51.964;5.924;2022-09-09T04:21:39;9.13;;;4.13;;
33076;SDS011;38790;51.964;5.924;2022-09-09T04:24:07;10.05;;;4.50;;
33076;SDS011;38790;51.964;5.924;2022-09-09T04:26:34;10.68;;;4.60;;
33076;SDS011;38790;51.964;5.924;2022-09-09T04:29:02;6.82;;;4.13;;
33076;SDS011;38790;51.964;5.924;2022-09-09T04:31:29;8.50;;;4.00;;
33076;SDS011;38790;51.964;5.924;2022-09-09T04:33:55;10.95;;;4.70;;
33076;SDS011;38790;51.964;5.924;2022-09-09T04:36:22;8.70;;;4.50;;
33076;SDS011;38790;51.964;5.924;2022-09-09T04:38:48;8.57;;;4.00;;
33076;SDS011;38790;51.964;5.924;2022-09-09T04:41:14;8.15;;;4.60;;
33076;SDS011;38790;51.964;5.924;2022-09-09T04:43:41;10.65;;;4.35;;
33076;SDS011;38790;51.964;5.924;2022-09-09T04:46:08;8.70;;;4.25;;
33076;SDS011;38790;51.964;5.924;2022-09-09T04:48:34;9.80;;;4.20;;
33076;SDS011;38790;51.964;5.924;2022-09-09T04:51:02;10.85;;;3.92;;
33076;SDS011;38790;51.964;5.924;2022-09-09T04:53:30;9.20;;;3.63;;
33076;SDS011;38790;51.964;5.924;2022-09-09T04:56:06;7.70;;;3.75;;
33076;SDS011;38790;51.964;5.924;2022-09-09T04:58:35;8.63;;;3.67;;
33076;SDS011;38790;51.964;5.924;2022-09-09T05:01:06;8.30;;;3.50;;
33076;SDS011;38790;51.964;5.924;2022-09-09T05:03:33;11.48;;;4.63;;
33076;SDS011;38790;51.964;5.924;2022-09-09T05:06:07;11.55;;;4.20;;
33076;SDS011;38790;51.964;5.924;2022-09-09T05:08:38;8.23;;;3.70;;
33076;SDS011;38790;51.964;5.924;2022-09-09T05:11:21;7.18;;;3.10;;
33076;SDS011;38790;51.964;5.924;2022-09-09T05:13:52;13.32;;;3.30;;
33076;SDS011;38790;51.964;5.924;2022-09-09T05:16:19;9.43;;;3.88;;
33076;SDS011;38790;51.964;5.924;2022-09-09T05:18:46;7.82;;;2.90;;
33076;SDS011;38790;51.964;5.924;2022-09-09T05:21:13;8.15;;;3.50;;
33076;SDS011;38790;51.964;5.924;2022-09-09T05:23:40;14.85;;;4.03;;
33076;SDS011;38790;51.964;5.924;2022-09-09T05:26:08;13.52;;;3.90;;
33076;SDS011;38790;51.964;5.924;2022-09-09T05:28:37;12.70;;;3.78;;
33076;SDS011;38790;51.964;5.924;2022-09-09T05:31:04;7.70;;;3.33;;
33076;SDS011;38790;51.964;5.924;2022-09-09T05:33:33;15.15;;;3.63;;
33076;SDS011;38790;51.964;5.924;2022-09-09T05:36:02;10.20;;;3.35;;
33076;SDS011;38790;51.964;5.924;2022-09-09T05:38:33;10.48;;;3.78;;
33076;SDS011;38790;51.964;5.924;2022-09-09T05:41:01;7.30;;;3.38;;
33076;SDS011;38790;51.964;5.924;2022-09-09T05:43:28;9.10;;;3.08;;
33076;SDS011;38790;51.964;5.924;2022-09-09T05:46:02;10.25;;;3.80;;
33076;SDS011;38790;51.964;5.924;2022-09-09T05:48:30;10.70;;;4.07;;
33076;SDS011;38790;51.964;5.924;2022-09-09T05:50:58;10.52;;;3.50;;
33076;SDS011;38790;51.964;5.924;2022-09-09T05:53:25;11.77;;;3.22;;
33076;SDS011;38790;51.964;5.924;2022-09-09T05:56:02;15.73;;;3.70;;
33076;SDS011;38790;51.964;5.924;2022-09-09T05:58:33;13.00;;;3.42;;
33076;SDS011;38790;51.964;5.924;2022-09-09T06:01:09;9.35;;;3.47;;
33076;SDS011;38790;51.964;5.924;2022-09-09T06:03:41;12.88;;;3.80;;
33076;SDS011;38790;51.964;5.924;2022-09-09T06:06:09;8.65;;;3.53;;
33076;SDS011;38790;51.964;5.924;2022-09-09T06:08:38;11.13;;;3.60;;
33076;SDS011;38790;51.964;5.924;2022-09-09T06:11:07;12.40;;;3.92;;
33076;SDS011;38790;51.964;5.924;2022-09-09T06:13:36;12.20;;;3.70;;
33076;SDS011;38790;51.964;5.924;2022-09-09T06:16:04;15.95;;;4.05;;
33076;SDS011;38790;51.964;5.924;2022-09-09T06:18:32;15.57;;;3.80;;
33076;SDS011;38790;51.964;5.924;2022-09-09T06:21:03;17.80;;;3.47;;
33076;SDS011;38790;51.964;5.924;2022-09-09T06:23:31;15.50;;;3.10;;
33076;SDS011;38790;51.964;5.924;2022-09-09T06:26:09;5.97;;;3.22;;
33076;SDS011;38790;51.964;5.924;2022-09-09T06:28:36;12.57;;;3.30;;
33076;SDS011;38790;51.964;5.924;2022-09-09T06:31:04;10.55;;;3.38;;
33076;SDS011;38790;51.964;5.924;2022-09-09T06:33:35;7.10;;;3.15;;
33076;SDS011;38790;51.964;5.924;2022-09-09T06:36:05;15.40;;;3.38;;
33076;SDS011;38790;51.964;5.924;2022-09-09T06:38:31;12.90;;;2.88;;
33076;SDS011;38790;51.964;5.924;2022-09-09T06:40:58;17.67;;;3.35;;
33076;SDS011;38790;51.964;5.924;2022-09-09T06:43:25;16.92;;;3.10;;
33076;SDS011;38790;51.964;5.924;2022-09-09T06:45:55;15.63;;;3.20;;
33076;SDS011;38790;51.964;5.924;2022-09-09T06:48:26;12.85;;;2.92;;
33076;SDS011;38790;51.964;5.924;2022-09-09T06:53:32;12.05;;;2.53;;
33076;SDS011;38790;51.964;5.924;2022-09-09T06:56:02;7.82;;;2.53;;
33076;SDS011;38790;51.964;5.924;2022-09-09T06:58:44;9.20;;;2.70;;
33076;SDS011;38790;51.964;5.924;2022-09-09T07:01:12;13.27;;;3.17;;
33076;SDS011;38790;51.964;5.924;2022-09-09T07:03:39;8.35;;;2.72;;
33076;SDS011;38790;51.964;5.924;2022-09-09T07:06:06;11.80;;;2.55;;
33076;SDS011;38790;51.964;5.924;2022-09-09T07:08:34;8.75;;;2.42;;
33076;SDS011;38790;51.964;5.924;2022-09-09T07:11:04;11.73;;;2.80;;
33076;SDS011;38790;51.964;5.924;2022-09-09T07:13:31;14.05;;;2.75;;
33076;SDS011;38790;51.964;5.924;2022-09-09T07:16:04;15.80;;;3.10;;
33076;SDS011;38790;51.964;5.924;2022-09-09T07:20:58;11.15;;;2.97;;
33076;SDS011;38790;51.964;5.924;2022-09-09T07:23:24;12.93;;;2.72;;
33076;SDS011;38790;51.964;5.924;2022-09-09T07:25:51;12.90;;;3.08;;
33076;SDS011;38790;51.964;5.924;2022-09-09T07:28:18;11.38;;;2.47;;
33076;SDS011;38790;51.964;5.924;2022-09-09T07:30:58;12.50;;;2.50;;
33076;SDS011;38790;51.964;5.924;2022-09-09T07:33:28;13.52;;;3.17;;
33076;SDS011;38790;51.964;5.924;2022-09-09T07:36:06;19.38;;;3.13;;
33076;SDS011;38790;51.964;5.924;2022-09-09T07:38:48;9.43;;;2.65;;
33076;SDS011;38790;51.964;5.924;2022-09-09T07:41:18;17.05;;;2.95;;
33076;SDS011;38790;51.964;5.924;2022-09-09T07:43:50;10.40;;;2.80;;
33076;SDS011;38790;51.964;5.924;2022-09-09T07:46:19;12.57;;;3.03;;
33076;SDS011;38790;51.964;5.924;2022-09-09T07:48:48;14.07;;;3.00;;
33076;SDS011;38790;51.964;5.924;2022-09-09T07:51:20;8.05;;;3.00;;
33076;SDS011;38790;51.964;5.924;2022-09-09T07:53:53;9.05;;;2.63;;
33076;SDS011;38790;51.964;5.924;2022-09-09T07:56:23;8.03;;;2.73;;
33076;SDS011;38790;51.964;5.924;2022-09-09T07:58:51;15.07;;;2.92;;
33076;SDS011;38790;51.964;5.924;2022-09-09T08:01:20;14.35;;;2.97;;
33076;SDS011;38790;51.964;5.924;2022-09-09T08:03:58;14.75;;;3.13;;
33076;SDS011;38790;51.964;5.924;2022-09-09T08:06:27;12.75;;;2.30;;
33076;SDS011;38790;51.964;5.924;2022-09-09T08:08:54;11.13;;;3.33;;
33076;SDS011;38790;51.964;5.924;2022-09-09T08:11:21;13.23;;;2.65;;
33076;SDS011;38790;51.964;5.924;2022-09-09T08:13:52;12.98;;;3.17;;
33076;SDS011;38790;51.964;5.924;2022-09-09T08:16:20;9.75;;;2.60;;
33076;SDS011;38790;51.964;5.924;2022-09-09T08:18:48;17.55;;;3.47;;
33076;SDS011;38790;51.964;5.924;2022-09-09T08:21:16;17.25;;;3.15;;
33076;SDS011;38790;51.964;5.924;2022-09-09T08:23:45;14.32;;;2.92;;
33076;SDS011;38790;51.964;5.924;2022-09-09T08:26:19;6.15;;;2.30;;
33076;SDS011;38790;51.964;5.924;2022-09-09T08:28:52;13.65;;;2.50;;
33076;SDS011;38790;51.964;5.924;2022-09-09T08:31:22;16.35;;;2.95;;
33076;SDS011;38790;51.964;5.924;2022-09-09T08:33:49;12.88;;;2.70;;
33076;SDS011;38790;51.964;5.924;2022-09-09T08:36:18;15.40;;;2.83;;
33076;SDS011;38790;51.964;5.924;2022-09-09T08:38:47;11.85;;;2.60;;
33076;SDS011;38790;51.964;5.924;2022-09-09T08:52:30;10.85;;;2.60;;
33076;SDS011;38790;51.964;5.924;2022-09-09T08:55:05;16.20;;;3.22;;
33076;SDS011;38790;51.964;5.924;2022-09-09T08:57:50;16.58;;;3.30;;
33076;SDS011;38790;51.964;5.924;2022-09-09T09:00:19;18.08;;;2.38;;
33076;SDS011;38790;51.964;5.924;2022-09-09T09:05:37;12.77;;;2.97;;
33076;SDS011;38790;51.964;5.924;2022-09-09T09:10:50;10.07;;;1.75;;
33076;SDS011;38790;51.964;5.924;2022-09-09T09:13:20;8.55;;;1.63;;
33076;SDS011;38790;51.964;5.924;2022-09-09T09:15:50;10.13;;;1.95;;
33076;SDS011;38790;51.964;5.924;2022-09-09T09:18:22;10.57;;;2.15;;
33076;SDS011;38790;51.964;5.924;2022-09-09T09:23:30;8.50;;;1.90;;
33076;SDS011;38790;51.964;5.924;2022-09-09T09:26:17;13.27;;;2.45;;
33076;SDS011;38790;51.964;5.924;2022-09-09T09:28:45;6.45;;;1.92;;
33076;SDS011;38790;51.964;5.924;2022-09-09T09:31:12;7.75;;;2.05;;
33076;SDS011;38790;51.964;5.924;2022-09-09T09:36:15;8.90;;;2.00;;
33076;SDS011;38790;51.964;5.924;2022-09-09T09:38:58;13.85;;;2.58;;
33076;SDS011;38790;51.964;5.924;2022-09-09T09:46:52;9.52;;;1.98;;
33076;SDS011;38790;51.964;5.924;2022-09-09T09:49:30;13.38;;;2.60;;
33076;SDS011;38790;51.964;5.924;2022-09-09T09:52:01;9.65;;;1.92;;
33076;SDS011;38790;51.964;5.924;2022-09-09T09:54:29;9.40;;;2.03;;
33076;SDS011;38790;51.964;5.924;2022-09-09T09:57:11;14.65;;;3.05;;
33076;SDS011;38790;51.964;5.924;2022-09-09T09:59:39;10.93;;;2.08;;
33076;SDS011;38790;51.964;5.924;2022-09-09T10:02:10;14.68;;;1.77;;
33076;SDS011;38790;51.964;5.924;2022-09-09T10:04:42;7.50;;;1.70;;
33076;SDS011;38790;51.964;5.924;2022-09-09T10:07:18;8.27;;;1.70;;
33076;SDS011;38790;51.964;5.924;2022-09-09T10:09:47;9.95;;;2.28;;
33076;SDS011;38790;51.964;5.924;2022-09-09T10:26:47;10.25;;;2.72;;
33076;SDS011;38790;51.964;5.924;2022-09-09T10:40:46;9.98;;;2.22;;
33076;SDS011;38790;51.964;5.924;2022-09-09T10:46:06;6.23;;;1.90;;
33076;SDS011;38790;51.964;5.924;2022-09-09T10:48:53;12.27;;;1.85;;
33076;SDS011;38790;51.964;5.924;2022-09-09T10:54:57;10.20;;;1.85;;
33076;SDS011;38790;51.964;5.924;2022-09-09T10:59:50;15.38;;;2.25;;
33076;SDS011;38790;51.964;5.924;2022-09-09T11:02:27;7.60;;;1.60;;
33076;SDS011;38790;51.964;5.924;2022-09-09T11:04:55;11.73;;;2.10;;
33076;SDS011;38790;51.964;5.924;2022-09-09T11:07:36;7.53;;;2.03;;
33076;SDS011;38790;51.964;5.924;2022-09-09T11:12:55;9.02;;;1.88;;
33076;SDS011;38790;51.964;5.924;2022-09-09T11:15:34;15.00;;;2.45;;
33076;SDS011;38790;51.964;5.924;2022-09-09T11:18:06;11.98;;;2.42;;
33076;SDS011;38790;51.964;5.924;2022-09-09T11:20:41;13.50;;;2.50;;
33076;SDS011;38790;51.964;5.924;2022-09-09T11:23:12;12.57;;;1.90;;
33076;SDS011;38790;51.964;5.924;2022-09-09T11:25:42;12.90;;;2.20;;
33076;SDS011;38790;51.964;5.924;2022-09-09T11:30:57;14.40;;;2.33;;
33076;SDS011;38790;51.964;5.924;2022-09-09T11:39:17;8.85;;;2.08;;
33076;SDS011;38790;51.964;5.924;2022-09-09T11:44:51;8.27;;;1.90;;
33076;SDS011;38790;51.964;5.924;2022-09-09T11:47:29;6.68;;;1.73;;
33076;SDS011;38790;51.964;5.924;2022-09-09T11:52:41;6.63;;;1.70;;
33076;SDS011;38790;51.964;5.924;2022-09-09T11:55:28;21.85;;;1.92;;
33076;SDS011;38790;51.964;5.924;2022-09-09T11:58:02;7.18;;;1.80;;
33076;SDS011;38790;51.964;5.924;2022-09-09T12:00:49;12.02;;;2.10;;
33076;SDS011;38790;51.964;5.924;2022-09-09T12:06:09;7.03;;;1.70;;
33076;SDS011;38790;51.964;5.924;2022-09-09T12:08:43;6.50;;;1.80;;
33076;SDS011;38790;51.964;5.924;2022-09-09T12:11:12;10.40;;;1.83;;
33076;SDS011;38790;51.964;5.924;2022-09-09T12:13:54;8.85;;;1.95;;
33076;SDS011;38790;51.964;5.924;2022-09-09T12:16:35;10.95;;;2.10;;
33076;SDS011;38790;51.964;5.924;2022-09-09T12:19:12;9.30;;;2.28;;
33076;SDS011;38790;51.964;5.924;2022-09-09T12:24:46;9.98;;;1.80;;
33076;SDS011;38790;51.964;5.924;2022-09-09T12:27:18;4.72;;;1.70;;
33076;SDS011;38790;51.964;5.924;2022-09-09T12:29:57;9.48;;;1.95;;
33076;SDS011;38790;51.964;5.924;2022-09-09T12:32:29;5.72;;;1.67;;
33076;SDS011;38790;51.964;5.924;2022-09-09T12:34:58;5.03;;;1.55;;
33076;SDS011;38790;51.964;5.924;2022-09-09T12:37:39;4.95;;;1.60;;
33076;SDS011;38790;51.964;5.924;2022-09-09T12:40:31;3.67;;;1.48;;
33076;SDS011;38790;51.964;5.924;2022-09-09T12:43:01;9.13;;;1.80;;
33076;SDS011;38790;51.964;5.924;2022-09-09T12:45:41;7.97;;;1.95;;
33076;SDS011;38790;51.964;5.924;2022-09-09T12:48:08;7.00;;;1.80;;
33076;SDS011;38790;51.964;5.924;2022-09-09T12:50:49;7.10;;;1.67;;
33076;SDS011;38790;51.964;5.924;2022-09-09T12:53:26;5.05;;;1.60;;
33076;SDS011;38790;51.964;5.924;2022-09-09T12:55:58;7.57;;;1.67;;
33076;SDS011;38790;51.964;5.924;2022-09-09T12:58:36;5.72;;;1.75;;
33076;SDS011;38790;51.964;5.924;2022-09-09T13:01:04;4.60;;;1.40;;
33076;SDS011;38790;51.964;5.924;2022-09-09T13:03:41;6.90;;;1.63;;
33076;SDS011;38790;51.964;5.924;2022-09-09T13:06:12;4.70;;;1.60;;
33076;SDS011;38790;51.964;5.924;2022-09-09T13:08:44;7.05;;;1.67;;
33076;SDS011;38790;51.964;5.924;2022-09-09T13:11:11;9.00;;;1.70;;
33076;SDS011;38790;51.964;5.924;2022-09-09T13:13:41;5.38;;;1.75;;
33076;SDS011;38790;51.964;5.924;2022-09-09T13:16:19;7.95;;;2.35;;
33076;SDS011;38790;51.964;5.924;2022-09-09T13:18:48;3.22;;;1.40;;
33076;SDS011;38790;51.964;5.924;2022-09-09T13:21:14;3.95;;;1.65;;
33076;SDS011;38790;51.964;5.924;2022-09-09T13:23:41;6.78;;;1.88;;
33076;SDS011;38790;51.964;5.924;2022-09-09T13:26:24;3.60;;;1.70;;
33076;SDS011;38790;51.964;5.924;2022-09-09T13:28:51;3.95;;;1.70;;
33076;SDS011;38790;51.964;5.924;2022-09-09T13:31:20;5.18;;;1.70;;
33076;SDS011;38790;51.964;5.924;2022-09-09T13:33:48;5.63;;;1.65;;
33076;SDS011;38790;51.964;5.924;2022-09-09T13:36:15;5.03;;;1.50;;
33076;SDS011;38790;51.964;5.924;2022-09-09T13:41:19;4.57;;;1.52;;
33076;SDS011;38790;51.964;5.924;2022-09-09T13:43:50;14.98;;;2.17;;
33076;SDS011;38790;51.964;5.924;2022-09-09T13:46:25;8.90;;;1.77;;
33076;SDS011;38790;51.964;5.924;2022-09-09T13:49:01;6.22;;;1.42;;
33076;SDS011;38790;51.964;5.924;2022-09-09T13:51:37;5.13;;;1.40;;
33076;SDS011;38790;51.964;5.924;2022-09-09T13:54:11;8.00;;;2.08;;
33076;SDS011;38790;51.964;5.924;2022-09-09T13:56:39;6.78;;;1.70;;
33076;SDS011;38790;51.964;5.924;2022-09-09T13:59:08;6.57;;;1.85;;
33076;SDS011;38790;51.964;5.924;2022-09-09T14:01:36;11.23;;;2.00;;
33076;SDS011;38790;51.964;5.924;2022-09-09T14:04:03;8.98;;;2.22;;
33076;SDS011;38790;51.964;5.924;2022-09-09T14:06:31;8.07;;;2.30;;
33076;SDS011;38790;51.964;5.924;2022-09-09T14:08:58;8.02;;;1.55;;
33076;SDS011;38790;51.964;5.924;2022-09-09T14:11:24;8.98;;;1.50;;
33076;SDS011;38790;51.964;5.924;2022-09-09T14:13:50;4.38;;;1.70;;
33076;SDS011;38790;51.964;5.924;2022-09-09T14:16:17;4.82;;;1.55;;
33076;SDS011;38790;51.964;5.924;2022-09-09T14:18:44;6.43;;;1.60;;
33076;SDS011;38790;51.964;5.924;2022-09-09T14:21:10;6.57;;;1.60;;
33076;SDS011;38790;51.964;5.924;2022-09-09T14:23:37;4.82;;;1.60;;
33076;SDS011;38790;51.964;5.924;2022-09-09T14:26:04;4.40;;;1.33;;
33076;SDS011;38790;51.964;5.924;2022-09-09T14:28:31;7.95;;;1.90;;
33076;SDS011;38790;51.964;5.924;2022-09-09T14:30:59;6.47;;;1.40;;
33076;SDS011;38790;51.964;5.924;2022-09-09T14:33:26;4.38;;;1.40;;
33076;SDS011;38790;51.964;5.924;2022-09-09T14:35:55;4.85;;;2.08;;
33076;SDS011;38790;51.964;5.924;2022-09-09T14:38:26;6.07;;;1.88;;
33076;SDS011;38790;51.964;5.924;2022-09-09T14:40:55;9.07;;;1.52;;
33076;SDS011;38790;51.964;5.924;2022-09-09T14:43:21;9.82;;;2.03;;
33076;SDS011;38790;51.964;5.924;2022-09-09T14:45:47;7.65;;;1.80;;
33076;SDS011;38790;51.964;5.924;2022-09-09T14:48:14;6.00;;;1.50;;
33076;SDS011;38790;51.964;5.924;2022-09-09T14:50:40;6.32;;;1.77;;
33076;SDS011;38790;51.964;5.924;2022-09-09T14:53:07;7.78;;;1.50;;
33076;SDS011;38790;51.964;5.924;2022-09-09T14:55:34;8.50;;;1.70;;
33076;SDS011;38790;51.964;5.924;2022-09-09T14:58:01;7.30;;;1.52;;
33076;SDS011;38790;51.964;5.924;2022-09-09T15:00:27;6.10;;;1.85;;
33076;SDS011;38790;51.964;5.924;2022-09-09T15:02:53;6.50;;;1.73;;
33076;SDS011;38790;51.964;5.924;2022-09-09T15:05:20;7.25;;;1.73;;
33076;SDS011;38790;51.964;5.924;2022-09-09T15:07:47;5.20;;;1.65;;
33076;SDS011;38790;51.964;5.924;2022-09-09T15:10:13;5.68;;;1.63;;
33076;SDS011;38790;51.964;5.924;2022-09-09T15:12:40;10.40;;;1.67;;
33076;SDS011;38790;51.964;5.924;2022-09-09T15:15:07;6.07;;;1.55;;
33076;SDS011;38790;51.964;5.924;2022-09-09T15:17:34;7.68;;;1.83;;
33076;SDS011;38790;51.964;5.924;2022-09-09T15:20:02;7.72;;;1.70;;
33076;SDS011;38790;51.964;5.924;2022-09-09T15:22:31;8.63;;;1.98;;
33076;SDS011;38790;51.964;5.924;2022-09-09T15:24:57;5.65;;;1.45;;
33076;SDS011;38790;51.964;5.924;2022-09-09T15:27:23;4.53;;;1.58;;
33076;SDS011;38790;51.964;5.924;2022-09-09T15:29:50;8.82;;;2.08;;
33076;SDS011;38790;51.964;5.924;2022-09-09T15:32:17;5.95;;;1.60;;
33076;SDS011;38790;51.964;5.924;2022-09-09T15:34:43;9.93;;;1.77;;
33076;SDS011;38790;51.964;5.924;2022-09-09T15:37:10;5.38;;;2.00;;
33076;SDS011;38790;51.964;5.924;2022-09-09T15:39:39;9.80;;;1.45;;
33076;SDS011;38790;51.964;5.924;2022-09-09T15:42:06;5.60;;;1.60;;
33076;SDS011;38790;51.964;5.924;2022-09-09T15:44:42;6.63;;;1.85;;
33076;SDS011;38790;51.964;5.924;2022-09-09T15:47:12;5.25;;;1.23;;
33076;SDS011;38790;51.964;5.924;2022-09-09T15:49:38;7.47;;;1.42;;
33076;SDS011;38790;51.964;5.924;2022-09-09T15:52:05;4.57;;;1.50;;
33076;SDS011;38790;51.964;5.924;2022-09-09T15:54:35;5.88;;;1.45;;
33076;SDS011;38790;51.964;5.924;2022-09-09T15:57:11;4.43;;;1.50;;
33076;SDS011;38790;51.964;5.924;2022-09-09T15:59:38;9.02;;;1.63;;
33076;SDS011;38790;51.964;5.924;2022-09-09T16:02:05;4.57;;;1.45;;
33076;SDS011;38790;51.964;5.924;2022-09-09T16:04:32;9.80;;;1.67;;
33076;SDS011;38790;51.964;5.924;2022-09-09T16:07:00;4.15;;;1.60;;
33076;SDS011;38790;51.964;5.924;2022-09-09T16:09:28;7.68;;;2.28;;
33076;SDS011;38790;51.964;5.924;2022-09-09T16:11:56;7.97;;;1.50;;
33076;SDS011;38790;51.964;5.924;2022-09-09T16:14:24;5.85;;;1.70;;
33076;SDS011;38790;51.964;5.924;2022-09-09T16:16:51;6.15;;;1.77;;
33076;SDS011;38790;51.964;5.924;2022-09-09T16:19:17;8.20;;;2.15;;
33076;SDS011;38790;51.964;5.924;2022-09-09T16:21:45;7.57;;;1.88;;
33076;SDS011;38790;51.964;5.924;2022-09-09T16:24:14;6.47;;;2.83;;
33076;SDS011;38790;51.964;5.924;2022-09-09T16:26:44;5.47;;;1.88;;
33076;SDS011;38790;51.964;5.924;2022-09-09T16:29:15;6.72;;;2.05;;
33076;SDS011;38790;51.964;5.924;2022-09-09T16:31:43;7.40;;;2.47;;
33076;SDS011;38790;51.964;5.924;2022-09-09T16:34:10;6.75;;;1.92;;
33076;SDS011;38790;51.964;5.924;2022-09-09T16:36:37;10.32;;;2.05;;
33076;SDS011;38790;51.964;5.924;2022-09-09T16:39:05;4.90;;;1.88;;
33076;SDS011;38790;51.964;5.924;2022-09-09T16:41:32;7.90;;;2.47;;
33076;SDS011;38790;51.964;5.924;2022-09-09T16:44:00;5.00;;;1.30;;
33076;SDS011;38790;51.964;5.924;2022-09-09T16:46:28;6.88;;;1.63;;
33076;SDS011;38790;51.964;5.924;2022-09-09T16:48:56;2.85;;;1.30;;
33076;SDS011;38790;51.964;5.924;2022-09-09T16:51:30;1.88;;;1.35;;
33076;SDS011;38790;51.964;5.924;2022-09-09T16:53:59;4.25;;;1.80;;
33076;SDS011;38790;51.964;5.924;2022-09-09T16:56:28;5.85;;;1.20;;
33076;SDS011;38790;51.964;5.924;2022-09-09T16:59:00;5.72;;;1.92;;
33076;SDS011;38790;51.964;5.924;2022-09-09T17:01:29;6.40;;;1.70;;
33076;SDS011;38790;51.964;5.924;2022-09-09T17:03:58;5.43;;;1.92;;
33076;SDS011;38790;51.964;5.924;2022-09-09T17:06:29;4.82;;;1.73;;
33076;SDS011;38790;51.964;5.924;2022-09-09T17:08:58;8.38;;;1.42;;
33076;SDS011;38790;51.964;5.924;2022-09-09T17:11:26;3.63;;;1.60;;
33076;SDS011;38790;51.964;5.924;2022-09-09T17:13:54;7.15;;;1.83;;
33076;SDS011;38790;51.964;5.924;2022-09-09T17:16:22;5.82;;;1.85;;
33076;SDS011;38790;51.964;5.924;2022-09-09T17:18:50;2.58;;;1.45;;
33076;SDS011;38790;51.964;5.924;2022-09-09T17:21:17;3.50;;;1.45;;
33076;SDS011;38790;51.964;5.924;2022-09-09T17:23:45;7.22;;;3.13;;